sensor_id;sensor_type;location;lat;lon;timestamp;pressure;altitude;pressure_sealevel;temperature;humidity
42125;BME280;27787;44.594;11.046;2022-08-04T00:01:17;100969.34;;;26.79;50.09
42125;BME280;27787;44.594;11.046;2022-08-04T00:04:57;100971.34;;;26.59;51.24
42125;BME280;27787;44.594;11.046;2022-08-04T00:07:45;100971.25;;;26.45;51.72
42125;BME280;27787;44.594;11.046;2022-08-04T00:10:32;100972.69;;;26.35;52.33
42125;BME280;27787;44.594;11.046;2022-08-04T00:13:21;100973.00;;;26.29;52.56
42125;BME280;27787;44.594;11.046;2022-08-04T00:16:08;100977.06;;;26.37;52.02
42125;BME280;27787;44.594;11.046;2022-08-04T00:18:57;100968.69;;;26.42;52.00
42125;BME280;27787;44.594;11.046;2022-08-04T00:21:49;100967.91;;;26.40;52.30
42125;BME280;27787;44.594;11.046;2022-08-04T00:24:34;100962.81;;;26.34;52.48
42125;BME280;27787;44.594;11.046;2022-08-04T00:27:19;100970.16;;;26.32;52.34
42125;BME280;27787;44.594;11.046;2022-08-04T00:30:04;100967.03;;;26.39;52.10
42125;BME280;27787;44.594;11.046;2022-08-04T00:32:50;100963.34;;;26.40;52.08
42125;BME280;27787;44.594;11.046;2022-08-04T00:35:35;100967.25;;;26.35;52.16
42125;BME280;27787;44.594;11.046;2022-08-04T00:38:22;100973.25;;;26.24;52.43
42125;BME280;27787;44.594;11.046;2022-08-04T00:50:10;100974.00;;;26.10;52.46
42125;BME280;27787;44.594;11.046;2022-08-04T01:03:04;100977.44;;;25.97;52.35
42125;BME280;27787;44.594;11.046;2022-08-04T01:06:05;100977.28;;;26.00;52.36
42125;BME280;27787;44.594;11.046;2022-08-04T01:12:12;100975.78;;;25.94;52.40
42125;BME280;27787;44.594;11.046;2022-08-04T01:15:09;100967.03;;;25.89;52.42
42125;BME280;27787;44.594;11.046;2022-08-04T01:29:54;100962.56;;;26.05;51.76
42125;BME280;27787;44.594;11.046;2022-08-04T01:32:51;100965.00;;;26.10;51.50
42125;BME280;27787;44.594;11.046;2022-08-04T01:35:46;100953.88;;;25.99;51.71
42125;BME280;27787;44.594;11.046;2022-08-04T01:38:38;100954.06;;;25.96;51.83
42125;BME280;27787;44.594;11.046;2022-08-04T01:41:34;100952.22;;;25.96;51.78
42125;BME280;27787;44.594;11.046;2022-08-04T01:44:18;100963.84;;;25.98;52.27
42125;BME280;27787;44.594;11.046;2022-08-04T01:47:06;100965.28;;;26.05;51.83
42125;BME280;27787;44.594;11.046;2022-08-04T01:49:51;100963.25;;;26.09;51.42
42125;BME280;27787;44.594;11.046;2022-08-04T01:52:39;100963.09;;;26.12;51.61
42125;BME280;27787;44.594;11.046;2022-08-04T01:55:27;100962.31;;;26.10;51.32
42125;BME280;27787;44.594;11.046;2022-08-04T01:58:13;100967.09;;;26.05;51.57
42125;BME280;27787;44.594;11.046;2022-08-04T02:01:01;100969.88;;;26.03;51.98
42125;BME280;27787;44.594;11.046;2022-08-04T02:03:46;100965.09;;;25.91;52.11
42125;BME280;27787;44.594;11.046;2022-08-04T02:06:36;100966.31;;;25.85;52.38
42125;BME280;27787;44.594;11.046;2022-08-04T02:09:55;100964.75;;;25.81;52.72
42125;BME280;27787;44.594;11.046;2022-08-04T02:12:52;100967.38;;;25.83;52.92
42125;BME280;27787;44.594;11.046;2022-08-04T02:16:00;100972.59;;;25.86;52.76
42125;BME280;27787;44.594;11.046;2022-08-04T02:21:39;100968.63;;;25.76;53.33
42125;BME280;27787;44.594;11.046;2022-08-04T02:24:26;100979.34;;;25.77;53.27
42125;BME280;27787;44.594;11.046;2022-08-04T02:27:13;100974.81;;;25.78;52.65
42125;BME280;27787;44.594;11.046;2022-08-04T02:30:03;100968.28;;;25.65;53.05
42125;BME280;27787;44.594;11.046;2022-08-04T02:32:51;100969.41;;;25.43;53.86
42125;BME280;27787;44.594;11.046;2022-08-04T02:35:37;100968.44;;;25.27;54.63
42125;BME280;27787;44.594;11.046;2022-08-04T02:41:15;100971.25;;;25.07;55.37
42125;BME280;27787;44.594;11.046;2022-08-04T02:44:05;100976.09;;;24.98;55.90
42125;BME280;27787;44.594;11.046;2022-08-04T02:46:51;100975.47;;;24.93;56.07
42125;BME280;27787;44.594;11.046;2022-08-04T02:49:36;100963.94;;;24.90;56.18
42125;BME280;27787;44.594;11.046;2022-08-04T02:52:22;100972.13;;;24.88;56.69
42125;BME280;27787;44.594;11.046;2022-08-04T02:55:08;100971.16;;;24.89;56.97
42125;BME280;27787;44.594;11.046;2022-08-04T02:57:57;100968.00;;;24.98;56.82
42125;BME280;27787;44.594;11.046;2022-08-04T03:00:43;100966.72;;;25.07;56.55
42125;BME280;27787;44.594;11.046;2022-08-04T03:04:14;100969.13;;;25.13;56.29
42125;BME280;27787;44.594;11.046;2022-08-04T03:07:25;100968.28;;;25.11;56.49
42125;BME280;27787;44.594;11.046;2022-08-04T03:44:51;100969.69;;;25.20;55.81
42125;BME280;27787;44.594;11.046;2022-08-04T03:48:04;100958.88;;;25.20;55.80
42125;BME280;27787;44.594;11.046;2022-08-04T04:04:04;100963.47;;;24.99;54.63
42125;BME280;27787;44.594;11.046;2022-08-04T04:07:57;100974.25;;;25.01;54.69
42125;BME280;27787;44.594;11.046;2022-08-04T04:34:38;100991.09;;;24.68;55.94
42125;BME280;27787;44.594;11.046;2022-08-04T04:37:50;100991.97;;;24.68;55.93
42125;BME280;27787;44.594;11.046;2022-08-04T04:47:03;101005.09;;;24.38;57.12
42125;BME280;27787;44.594;11.046;2022-08-04T04:53:03;100999.16;;;24.30;57.76
42125;BME280;27787;44.594;11.046;2022-08-04T04:56:00;101006.38;;;24.30;57.91
42125;BME280;27787;44.594;11.046;2022-08-04T04:58:47;101002.53;;;24.35;57.35
42125;BME280;27787;44.594;11.046;2022-08-04T05:14:00;100998.31;;;24.49;57.07
42125;BME280;27787;44.594;11.046;2022-08-04T05:17:01;101003.00;;;24.64;56.81
42125;BME280;27787;44.594;11.046;2022-08-04T05:20:21;101000.28;;;24.83;56.23
42125;BME280;27787;44.594;11.046;2022-08-04T05:23:11;101000.97;;;24.88;56.11
42125;BME280;27787;44.594;11.046;2022-08-04T05:26:11;100994.91;;;25.02;56.21
42125;BME280;27787;44.594;11.046;2022-08-04T05:28:58;101001.91;;;25.06;56.48
42125;BME280;27787;44.594;11.046;2022-08-04T05:31:49;101005.03;;;25.15;56.29
42125;BME280;27787;44.594;11.046;2022-08-04T05:34:48;101001.31;;;25.18;56.75
42125;BME280;27787;44.594;11.046;2022-08-04T05:37:37;100997.34;;;25.25;56.39
42125;BME280;27787;44.594;11.046;2022-08-04T05:40:23;100999.75;;;25.31;56.51
42125;BME280;27787;44.594;11.046;2022-08-04T05:43:10;101000.38;;;25.36;56.30
42125;BME280;27787;44.594;11.046;2022-08-04T05:45:57;101002.88;;;25.41;56.02
42125;BME280;27787;44.594;11.046;2022-08-04T05:48:44;101003.50;;;25.46;55.89
42125;BME280;27787;44.594;11.046;2022-08-04T05:51:30;101006.56;;;25.38;56.45
42125;BME280;27787;44.594;11.046;2022-08-04T05:54:17;101012.81;;;25.40;56.52
42125;BME280;27787;44.594;11.046;2022-08-04T05:57:04;101004.75;;;25.39;56.71
42125;BME280;27787;44.594;11.046;2022-08-04T05:59:50;101000.28;;;25.38;57.33
42125;BME280;27787;44.594;11.046;2022-08-04T06:02:36;101004.38;;;25.46;56.96
42125;BME280;27787;44.594;11.046;2022-08-04T06:05:21;100999.59;;;25.51;56.57
42125;BME280;27787;44.594;11.046;2022-08-04T06:08:06;101001.94;;;25.59;55.92
42125;BME280;27787;44.594;11.046;2022-08-04T06:10:52;101000.53;;;25.69;55.77
42125;BME280;27787;44.594;11.046;2022-08-04T06:13:47;101004.66;;;25.76;56.14
42125;BME280;27787;44.594;11.046;2022-08-04T06:16:37;101002.53;;;25.83;55.63
42125;BME280;27787;44.594;11.046;2022-08-04T06:19:24;101003.41;;;25.83;55.92
42125;BME280;27787;44.594;11.046;2022-08-04T06:22:11;101006.09;;;25.83;55.90
42125;BME280;27787;44.594;11.046;2022-08-04T06:24:57;101003.31;;;25.85;55.76
42125;BME280;27787;44.594;11.046;2022-08-04T06:27:43;101010.16;;;25.92;55.06
42125;BME280;27787;44.594;11.046;2022-08-04T06:30:30;101005.13;;;26.02;54.76
42125;BME280;27787;44.594;11.046;2022-08-04T06:33:16;101004.91;;;26.06;54.64
42125;BME280;27787;44.594;11.046;2022-08-04T06:36:09;101007.44;;;26.09;52.97
42125;BME280;27787;44.594;11.046;2022-08-04T06:38:56;101004.63;;;26.11;52.81
42125;BME280;27787;44.594;11.046;2022-08-04T06:41:41;101007.25;;;26.12;52.69
42125;BME280;27787;44.594;11.046;2022-08-04T06:44:28;101004.31;;;26.17;52.98
42125;BME280;27787;44.594;11.046;2022-08-04T06:47:13;101010.44;;;26.21;52.48
42125;BME280;27787;44.594;11.046;2022-08-04T06:50:04;101011.84;;;26.28;52.83
42125;BME280;27787;44.594;11.046;2022-08-04T06:52:49;101004.38;;;26.33;52.44
42125;BME280;27787;44.594;11.046;2022-08-04T06:55:34;101005.81;;;26.40;52.24
42125;BME280;27787;44.594;11.046;2022-08-04T06:58:19;101005.47;;;26.46;52.35
42125;BME280;27787;44.594;11.046;2022-08-04T07:01:05;101010.63;;;26.51;51.96
42125;BME280;27787;44.594;11.046;2022-08-04T07:03:50;101010.38;;;26.55;51.84
42125;BME280;27787;44.594;11.046;2022-08-04T07:06:34;101006.56;;;26.59;51.27
42125;BME280;27787;44.594;11.046;2022-08-04T07:09:19;101007.16;;;26.64;51.07
42125;BME280;27787;44.594;11.046;2022-08-04T07:12:04;101003.25;;;26.70;51.26
42125;BME280;27787;44.594;11.046;2022-08-04T07:14:50;100996.69;;;26.74;51.06
42125;BME280;27787;44.594;11.046;2022-08-04T07:17:35;100999.03;;;26.80;51.13
42125;BME280;27787;44.594;11.046;2022-08-04T07:20:19;100999.78;;;26.84;50.50
42125;BME280;27787;44.594;11.046;2022-08-04T07:23:04;101000.56;;;26.86;49.87
42125;BME280;27787;44.594;11.046;2022-08-04T07:25:53;100996.78;;;26.88;48.94
42125;BME280;27787;44.594;11.046;2022-08-04T07:28:39;100993.81;;;26.93;48.30
42125;BME280;27787;44.594;11.046;2022-08-04T07:31:23;100988.16;;;26.97;47.92
42125;BME280;27787;44.594;11.046;2022-08-04T07:34:08;100997.69;;;27.04;47.79
42125;BME280;27787;44.594;11.046;2022-08-04T07:36:54;100986.59;;;27.09;48.31
42125;BME280;27787;44.594;11.046;2022-08-04T07:39:39;100989.13;;;27.12;48.13
42125;BME280;27787;44.594;11.046;2022-08-04T07:42:23;100991.56;;;27.17;47.11
42125;BME280;27787;44.594;11.046;2022-08-04T07:45:08;100985.00;;;27.21;47.23
42125;BME280;27787;44.594;11.046;2022-08-04T07:47:53;100984.84;;;27.24;47.18
42125;BME280;27787;44.594;11.046;2022-08-04T07:50:41;100988.22;;;27.27;47.23
42125;BME280;27787;44.594;11.046;2022-08-04T07:53:27;100989.63;;;27.35;47.89
42125;BME280;27787;44.594;11.046;2022-08-04T07:56:12;100992.16;;;27.38;47.40
42125;BME280;27787;44.594;11.046;2022-08-04T07:58:59;100984.72;;;27.41;47.44
42125;BME280;27787;44.594;11.046;2022-08-04T08:01:44;100994.50;;;27.44;47.46
42125;BME280;27787;44.594;11.046;2022-08-04T08:04:29;100990.66;;;27.48;46.86
42125;BME280;27787;44.594;11.046;2022-08-04T08:07:13;100985.13;;;27.49;46.42
42125;BME280;27787;44.594;11.046;2022-08-04T08:09:58;100985.81;;;27.53;45.90
42125;BME280;27787;44.594;11.046;2022-08-04T08:12:43;100978.34;;;27.56;45.38
42125;BME280;27787;44.594;11.046;2022-08-04T08:15:28;100974.59;;;27.59;44.97
42125;BME280;27787;44.594;11.046;2022-08-04T08:18:14;100984.31;;;27.63;44.56
42125;BME280;27787;44.594;11.046;2022-08-04T08:20:59;100977.66;;;27.69;44.90
42125;BME280;27787;44.594;11.046;2022-08-04T08:23:43;100965.38;;;27.77;44.44
42125;BME280;27787;44.594;11.046;2022-08-04T08:26:27;100966.16;;;27.79;44.24
42125;BME280;27787;44.594;11.046;2022-08-04T08:29:12;100967.91;;;27.80;44.53
42125;BME280;27787;44.594;11.046;2022-08-04T08:31:56;100971.59;;;27.94;43.44
42125;BME280;27787;44.594;11.046;2022-08-04T08:34:41;100973.16;;;28.12;42.85
42125;BME280;27787;44.594;11.046;2022-08-04T08:37:47;100975.53;;;28.18;43.36
42125;BME280;27787;44.594;11.046;2022-08-04T08:41:29;100973.00;;;28.15;42.72
42125;BME280;27787;44.594;11.046;2022-08-04T08:46:38;100972.03;;;28.16;41.77
42125;BME280;27787;44.594;11.046;2022-08-04T09:01:57;100966.22;;;28.36;39.05
42125;BME280;27787;44.594;11.046;2022-08-04T09:04:50;100970.69;;;28.37;39.96
42125;BME280;27787;44.594;11.046;2022-08-04T09:10:44;100957.72;;;28.42;40.20
42125;BME280;27787;44.594;11.046;2022-08-04T09:14:38;100958.16;;;28.49;39.95
42125;BME280;27787;44.594;11.046;2022-08-04T09:16:48;100955.59;;;28.74;38.56
42125;BME280;27787;44.594;11.046;2022-08-04T09:19:52;100952.31;;;28.84;39.62
42125;BME280;27787;44.594;11.046;2022-08-04T09:22:53;100955.22;;;28.95;38.84
42125;BME280;27787;44.594;11.046;2022-08-04T09:29:40;100952.78;;;29.04;38.72
42125;BME280;27787;44.594;11.046;2022-08-04T09:32:33;100955.16;;;29.09;38.90
42125;BME280;27787;44.594;11.046;2022-08-04T09:35:39;100946.59;;;29.15;38.65
42125;BME280;27787;44.594;11.046;2022-08-04T09:47:31;100943.09;;;29.13;38.19
42125;BME280;27787;44.594;11.046;2022-08-04T09:53:41;100929.22;;;29.18;37.68
42125;BME280;27787;44.594;11.046;2022-08-04T09:56:38;100935.97;;;29.25;36.75
42125;BME280;27787;44.594;11.046;2022-08-04T09:59:28;100928.16;;;29.33;37.17
42125;BME280;27787;44.594;11.046;2022-08-04T10:02:21;100928.00;;;29.49;37.09
42125;BME280;27787;44.594;11.046;2022-08-04T10:05:13;100932.03;;;29.56;36.38
42125;BME280;27787;44.594;11.046;2022-08-04T10:08:31;100929.44;;;29.67;36.16
42125;BME280;27787;44.594;11.046;2022-08-04T10:21:00;100916.06;;;29.77;35.98
42125;BME280;27787;44.594;11.046;2022-08-04T10:24:41;100917.81;;;30.03;34.77
42125;BME280;27787;44.594;11.046;2022-08-04T10:27:06;100908.25;;;30.23;34.07
42125;BME280;27787;44.594;11.046;2022-08-04T10:29:53;100910.88;;;30.24;34.56
42125;BME280;27787;44.594;11.046;2022-08-04T10:35:36;100906.19;;;30.14;34.51
42125;BME280;27787;44.594;11.046;2022-08-04T10:38:28;100900.75;;;30.14;34.37
42125;BME280;27787;44.594;11.046;2022-08-04T10:47:19;100892.44;;;30.28;33.25
42125;BME280;27787;44.594;11.046;2022-08-04T10:50:09;100888.47;;;30.45;33.29
42125;BME280;27787;44.594;11.046;2022-08-04T10:53:18;100879.84;;;30.51;33.25
42125;BME280;27787;44.594;11.046;2022-08-04T10:56:18;100882.47;;;30.52;33.09
42125;BME280;27787;44.594;11.046;2022-08-04T10:59:15;100883.84;;;30.58;33.11
42125;BME280;27787;44.594;11.046;2022-08-04T11:02:11;100883.31;;;30.66;32.60
42125;BME280;27787;44.594;11.046;2022-08-04T11:08:02;100870.88;;;30.74;32.89
42125;BME280;27787;44.594;11.046;2022-08-04T11:14:03;100876.09;;;30.77;32.40
42125;BME280;27787;44.594;11.046;2022-08-04T11:16:58;100874.09;;;30.79;31.99
42125;BME280;27787;44.594;11.046;2022-08-04T11:22:31;100867.41;;;31.07;31.37
42125;BME280;27787;44.594;11.046;2022-08-04T11:25:21;100862.38;;;31.14;31.58
42125;BME280;27787;44.594;11.046;2022-08-04T11:28:38;100856.69;;;31.17;31.70
42125;BME280;27787;44.594;11.046;2022-08-04T11:31:32;100853.41;;;31.12;31.79
42125;BME280;27787;44.594;11.046;2022-08-04T11:34:23;100853.66;;;31.09;31.37
42125;BME280;27787;44.594;11.046;2022-08-04T11:40:19;100856.03;;;31.49;30.83
42125;BME280;27787;44.594;11.046;2022-08-04T11:43:11;100848.69;;;31.38;30.90
42125;BME280;27787;44.594;11.046;2022-08-04T11:46:00;100848.19;;;31.33;31.21
42125;BME280;27787;44.594;11.046;2022-08-04T11:49:00;100845.34;;;31.34;30.10
42125;BME280;27787;44.594;11.046;2022-08-04T11:51:46;100840.25;;;31.30;30.12
42125;BME280;27787;44.594;11.046;2022-08-04T11:54:33;100840.72;;;31.24;30.00
42125;BME280;27787;44.594;11.046;2022-08-04T11:57:17;100846.97;;;31.26;30.24
42125;BME280;27787;44.594;11.046;2022-08-04T12:00:05;100843.97;;;31.29;30.57
42125;BME280;27787;44.594;11.046;2022-08-04T12:09:31;100839.16;;;31.32;29.81
42125;BME280;27787;44.594;11.046;2022-08-04T12:12:36;100836.03;;;31.37;29.86
42125;BME280;27787;44.594;11.046;2022-08-04T12:15:41;100828.75;;;31.49;29.67
42125;BME280;27787;44.594;11.046;2022-08-04T12:18:33;100834.84;;;31.63;29.97
42125;BME280;27787;44.594;11.046;2022-08-04T12:21:47;100830.78;;;31.69;30.02
42125;BME280;27787;44.594;11.046;2022-08-04T12:24:42;100824.56;;;31.67;29.98
42125;BME280;27787;44.594;11.046;2022-08-04T12:27:32;100821.19;;;31.63;30.36
42125;BME280;27787;44.594;11.046;2022-08-04T12:30:18;100820.59;;;31.71;29.78
42125;BME280;27787;44.594;11.046;2022-08-04T12:33:11;100822.25;;;31.74;30.37
42125;BME280;27787;44.594;11.046;2022-08-04T12:36:18;100819.91;;;31.80;29.90
42125;BME280;27787;44.594;11.046;2022-08-04T12:39:09;100815.06;;;31.95;30.20
42125;BME280;27787;44.594;11.046;2022-08-04T12:42:02;100813.94;;;31.97;29.89
42125;BME280;27787;44.594;11.046;2022-08-04T12:44:49;100810.47;;;31.95;29.64
42125;BME280;27787;44.594;11.046;2022-08-04T12:47:37;100812.19;;;31.96;29.57
42125;BME280;27787;44.594;11.046;2022-08-04T12:50:23;100814.66;;;31.99;29.67
42125;BME280;27787;44.594;11.046;2022-08-04T12:53:12;100817.41;;;31.99;29.21
42125;BME280;27787;44.594;11.046;2022-08-04T12:55:59;100806.34;;;32.01;29.19
42125;BME280;27787;44.594;11.046;2022-08-04T12:58:46;100805.25;;;32.04;29.50
42125;BME280;27787;44.594;11.046;2022-08-04T13:01:31;100804.34;;;32.14;29.57
42125;BME280;27787;44.594;11.046;2022-08-04T13:04:21;100800.75;;;32.14;29.45
42125;BME280;27787;44.594;11.046;2022-08-04T13:07:09;100794.16;;;32.16;29.32
42125;BME280;27787;44.594;11.046;2022-08-04T13:09:56;100794.66;;;32.21;28.88
42125;BME280;27787;44.594;11.046;2022-08-04T13:12:50;100786.75;;;32.30;29.08
42125;BME280;27787;44.594;11.046;2022-08-04T13:15:35;100792.91;;;32.43;28.75
42125;BME280;27787;44.594;11.046;2022-08-04T13:18:20;100791.22;;;32.63;28.28
42125;BME280;27787;44.594;11.046;2022-08-04T13:21:19;100788.22;;;32.66;28.66
42125;BME280;27787;44.594;11.046;2022-08-04T13:24:09;100780.38;;;32.72;28.67
42125;BME280;27787;44.594;11.046;2022-08-04T13:29:43;100775.50;;;32.87;28.06
42125;BME280;27787;44.594;11.046;2022-08-04T13:32:28;100769.63;;;32.92;28.03
42125;BME280;27787;44.594;11.046;2022-08-04T13:35:14;100770.25;;;32.95;27.98
42125;BME280;27787;44.594;11.046;2022-08-04T13:37:59;100758.75;;;33.01;27.91
42125;BME280;27787;44.594;11.046;2022-08-04T13:40:45;100761.94;;;33.06;27.94
42125;BME280;27787;44.594;11.046;2022-08-04T13:43:32;100761.44;;;33.12;27.74
42125;BME280;27787;44.594;11.046;2022-08-04T13:46:23;100754.53;;;33.18;28.02
42125;BME280;27787;44.594;11.046;2022-08-04T13:49:10;100749.13;;;33.28;27.94
42125;BME280;27787;44.594;11.046;2022-08-04T13:52:03;100748.22;;;33.38;27.88
42125;BME280;27787;44.594;11.046;2022-08-04T13:54:48;100749.38;;;33.46;27.57
42125;BME280;27787;44.594;11.046;2022-08-04T13:57:42;100751.47;;;33.53;27.52
42125;BME280;27787;44.594;11.046;2022-08-04T14:00:42;100744.31;;;33.71;26.61
42125;BME280;27787;44.594;11.046;2022-08-04T14:03:44;100736.72;;;33.75;26.89
42125;BME280;27787;44.594;11.046;2022-08-04T14:06:44;100745.66;;;34.17;26.19
42125;BME280;27787;44.594;11.046;2022-08-04T14:09:35;100742.41;;;34.43;26.08
42125;BME280;27787;44.594;11.046;2022-08-04T14:12:21;100726.97;;;34.51;25.64
42125;BME280;27787;44.594;11.046;2022-08-04T14:15:05;100724.94;;;34.44;26.54
42125;BME280;27787;44.594;11.046;2022-08-04T14:17:49;100723.66;;;34.38;26.89
42125;BME280;27787;44.594;11.046;2022-08-04T14:20:33;100731.28;;;34.44;26.31
42125;BME280;27787;44.594;11.046;2022-08-04T14:23:18;100724.66;;;34.66;25.97
42125;BME280;27787;44.594;11.046;2022-08-04T14:29:12;100716.00;;;34.80;25.89
42125;BME280;27787;44.594;11.046;2022-08-04T14:32:03;100723.63;;;34.77;26.43
42125;BME280;27787;44.594;11.046;2022-08-04T14:34:47;100713.09;;;34.72;26.27
42125;BME280;27787;44.594;11.046;2022-08-04T14:37:32;100710.34;;;34.82;25.56
42125;BME280;27787;44.594;11.046;2022-08-04T14:40:31;100706.16;;;35.07;24.56
42125;BME280;27787;44.594;11.046;2022-08-04T14:43:17;100706.94;;;35.27;24.49
42125;BME280;27787;44.594;11.046;2022-08-04T14:46:05;100707.22;;;35.33;24.40
42125;BME280;27787;44.594;11.046;2022-08-04T14:49:04;100700.44;;;35.28;25.15
42125;BME280;27787;44.594;11.046;2022-08-04T14:51:55;100702.03;;;35.30;25.21
42125;BME280;27787;44.594;11.046;2022-08-04T14:54:41;100707.22;;;35.33;25.13
42125;BME280;27787;44.594;11.046;2022-08-04T14:57:27;100710.56;;;35.27;24.98
42125;BME280;27787;44.594;11.046;2022-08-04T15:00:12;100702.31;;;35.27;24.81
42125;BME280;27787;44.594;11.046;2022-08-04T15:03:08;100700.00;;;35.32;24.87
42125;BME280;27787;44.594;11.046;2022-08-04T15:05:55;100693.78;;;35.40;24.81
42125;BME280;27787;44.594;11.046;2022-08-04T15:08:40;100689.44;;;35.47;24.47
42125;BME280;27787;44.594;11.046;2022-08-04T15:11:26;100698.22;;;35.51;24.58
42125;BME280;27787;44.594;11.046;2022-08-04T15:14:10;100697.63;;;35.57;24.51
42125;BME280;27787;44.594;11.046;2022-08-04T15:16:54;100684.13;;;35.63;24.55
42125;BME280;27787;44.594;11.046;2022-08-04T15:19:39;100688.03;;;35.70;24.67
42125;BME280;27787;44.594;11.046;2022-08-04T15:22:23;100679.31;;;35.75;24.68
42125;BME280;27787;44.594;11.046;2022-08-04T15:25:08;100678.28;;;35.76;24.32
42125;BME280;27787;44.594;11.046;2022-08-04T15:27:52;100680.88;;;35.78;24.17
42125;BME280;27787;44.594;11.046;2022-08-04T15:30:38;100677.81;;;35.81;24.25
42125;BME280;27787;44.594;11.046;2022-08-04T15:33:24;100680.56;;;35.81;24.18
42125;BME280;27787;44.594;11.046;2022-08-04T15:37:10;100679.31;;;35.75;24.02
42125;BME280;27787;44.594;11.046;2022-08-04T15:39:32;100679.94;;;35.69;23.81
42125;BME280;27787;44.594;11.046;2022-08-04T15:59:13;100660.03;;;35.20;24.72
42125;BME280;27787;44.594;11.046;2022-08-04T16:02:29;100663.97;;;35.08;25.03
42125;BME280;27787;44.594;11.046;2022-08-04T16:08:09;100657.50;;;34.99;25.02
42125;BME280;27787;44.594;11.046;2022-08-04T16:10:54;100655.34;;;34.93;25.17
42125;BME280;27787;44.594;11.046;2022-08-04T16:14:06;100662.00;;;34.91;25.38
42125;BME280;27787;44.594;11.046;2022-08-04T16:16:50;100655.34;;;34.83;25.45
42125;BME280;27787;44.594;11.046;2022-08-04T16:19:48;100655.34;;;34.74;25.50
42125;BME280;27787;44.594;11.046;2022-08-04T16:22:39;100646.56;;;34.60;25.33
42125;BME280;27787;44.594;11.046;2022-08-04T16:25:44;100650.06;;;34.53;25.50
42125;BME280;27787;44.594;11.046;2022-08-04T16:28:37;100655.97;;;34.48;25.91
42125;BME280;27787;44.594;11.046;2022-08-04T16:31:24;100651.78;;;34.44;25.88
42125;BME280;27787;44.594;11.046;2022-08-04T16:34:08;100648.47;;;34.41;26.00
42125;BME280;27787;44.594;11.046;2022-08-04T16:36:54;100653.09;;;34.40;25.71
42125;BME280;27787;44.594;11.046;2022-08-04T16:39:39;100656.00;;;34.39;25.89
42125;BME280;27787;44.594;11.046;2022-08-04T16:42:27;100644.53;;;34.34;26.01
42125;BME280;27787;44.594;11.046;2022-08-04T16:45:12;100651.31;;;34.29;25.82
42125;BME280;27787;44.594;11.046;2022-08-04T16:47:59;100646.16;;;34.26;26.25
42125;BME280;27787;44.594;11.046;2022-08-04T16:53:41;100643.66;;;34.23;26.11
42125;BME280;27787;44.594;11.046;2022-08-04T16:56:30;100645.69;;;34.21;26.40
42125;BME280;27787;44.594;11.046;2022-08-04T16:59:15;100641.22;;;34.20;26.42
42125;BME280;27787;44.594;11.046;2022-08-04T17:02:00;100646.56;;;34.22;26.77
42125;BME280;27787;44.594;11.046;2022-08-04T17:04:45;100639.34;;;34.21;27.63
42125;BME280;27787;44.594;11.046;2022-08-04T17:07:48;100637.75;;;34.18;28.16
42125;BME280;27787;44.594;11.046;2022-08-04T17:10:38;100635.16;;;34.17;28.72
42125;BME280;27787;44.594;11.046;2022-08-04T17:13:27;100640.19;;;34.12;29.25
42125;BME280;27787;44.594;11.046;2022-08-04T17:16:15;100637.75;;;34.09;29.33
42125;BME280;27787;44.594;11.046;2022-08-04T17:19:00;100644.53;;;34.05;29.40
42125;BME280;27787;44.594;11.046;2022-08-04T17:21:44;100645.09;;;33.98;29.48
42125;BME280;27787;44.594;11.046;2022-08-04T17:24:29;100644.53;;;33.95;29.83
42125;BME280;27787;44.594;11.046;2022-08-04T17:27:13;100646.81;;;33.90;30.13
42125;BME280;27787;44.594;11.046;2022-08-04T17:29:58;100655.34;;;33.87;30.06
42125;BME280;27787;44.594;11.046;2022-08-04T17:32:43;100653.13;;;33.81;29.63
42125;BME280;27787;44.594;11.046;2022-08-04T17:35:27;100645.19;;;33.78;29.77
42125;BME280;27787;44.594;11.046;2022-08-04T17:38:12;100652.69;;;33.76;29.84
42125;BME280;27787;44.594;11.046;2022-08-04T17:41:01;100649.34;;;33.72;29.85
42125;BME280;27787;44.594;11.046;2022-08-04T17:52:01;100664.56;;;33.55;29.49
42125;BME280;27787;44.594;11.046;2022-08-04T17:54:45;100657.94;;;33.48;29.73
42125;BME280;27787;44.594;11.046;2022-08-04T17:57:29;100663.81;;;33.43;30.17
42125;BME280;27787;44.594;11.046;2022-08-04T18:00:14;100665.97;;;33.40;29.73
42125;BME280;27787;44.594;11.046;2022-08-04T18:02:59;100661.91;;;33.34;29.83
42125;BME280;27787;44.594;11.046;2022-08-04T18:05:43;100668.75;;;33.29;29.88
42125;BME280;27787;44.594;11.046;2022-08-04T18:08:27;100665.59;;;33.24;29.89
42125;BME280;27787;44.594;11.046;2022-08-04T18:11:17;100676.19;;;33.17;29.81
42125;BME280;27787;44.594;11.046;2022-08-04T18:14:02;100674.00;;;33.11;30.23
42125;BME280;27787;44.594;11.046;2022-08-04T18:16:47;100668.06;;;33.06;30.30
42125;BME280;27787;44.594;11.046;2022-08-04T18:19:31;100673.09;;;33.01;30.29
42125;BME280;27787;44.594;11.046;2022-08-04T18:22:16;100677.09;;;32.97;30.62
42125;BME280;27787;44.594;11.046;2022-08-04T18:25:01;100677.63;;;32.91;30.63
42125;BME280;27787;44.594;11.046;2022-08-04T18:27:55;100673.72;;;32.83;31.12
42125;BME280;27787;44.594;11.046;2022-08-04T18:30:40;100669.59;;;32.78;31.14
42125;BME280;27787;44.594;11.046;2022-08-04T18:33:24;100676.63;;;32.71;31.41
42125;BME280;27787;44.594;11.046;2022-08-04T18:36:10;100678.88;;;32.66;31.59
42125;BME280;27787;44.594;11.046;2022-08-04T18:38:54;100683.88;;;32.61;31.59
42125;BME280;27787;44.594;11.046;2022-08-04T18:41:38;100678.91;;;32.54;31.89